• Join FlightAware (Why Join?)
  • Login
  • US Flag 
01:33PM EDT


 

Airport Tracker/Info


-or-


 

Live Flight TrackerFlight Track Log ✈ N5765H ✈ 27-Mar-2014 ✈ KCRG - KFAY

Flight Track Log - Related Links

Times and Time Zones

All times are in EDT time to prevent confusion due to time zone crossing. See the N5765H flight status page for this flight to view local times or setup timezone preferences in your user account.

Time Position Orientation Groundspeed Altitude Reporting Facility
EDT Latitude Longitude Course Direction KTS MPH feet Rate Location/Type
11:07AM 30.3297 -81.4822 90° East 76 87 1,100  Level Jacksonville Center
11:07AM 30.3297 -81.4750 90° East 73 84 1,200 600 Climbing Jacksonville Center
11:08AM 30.3336 -81.4508 79° East 70 81 1,900 600 Climbing Jacksonville Center
11:09AM 30.3394 -81.4292 73° East 68 78 2,500 480 Climbing Jacksonville Center
11:10AM 30.3625 -81.4314 355° North 96 110 3,000 420 Climbing Jacksonville Center
11:11AM 30.3878 -81.4428 339° North 105 121 3,400 480 Climbing Jacksonville Center
11:12AM 30.4169 -81.4306 20° North 106 122 4,000 600 Climbing Jacksonville Center
11:12AM 30.4231 -81.4256 35° Northeast 107 123 4,100 600 Climbing Jacksonville Center
11:13AM 30.4522 -81.4131 20° North 107 123 4,700 480 Climbing Jacksonville Center
11:14AM 30.4686 -81.4008 33° Northeast 103 119 5,100 360 Climbing Jacksonville Center
11:14AM 30.4769 -81.3933 38° Northeast 102 117 5,100 -120 Level Jacksonville Center
11:15AM 30.5039 -81.3761 29° Northeast 149 171 5,000 -120 Descending Jacksonville Center
11:15AM 30.5081 -81.3736 27° Northeast 148 170 5,000  Level Jacksonville Center
11:16AM 30.5411 -81.3536 28° Northeast 158 182 5,000  Level Jacksonville Center
11:16AM 30.5475 -81.3489 32° Northeast 154 177 5,000  Level Jacksonville Center
11:17AM 30.5786 -81.3314 26° Northeast 158 182 5,000  Level Jacksonville Center
11:17AM 30.5911 -81.3289 10° North 154 177 5,000  Level Jacksonville Center
11:18AM 30.6219 -81.3067 32° Northeast 154 177 5,000  Level Jacksonville Center
11:19AM 30.6614 -81.2842 26° Northeast 154 177 5,000  Level Jacksonville Center
11:20AM 30.6986 -81.2594 30° Northeast 154 177 5,000  Level Jacksonville Center
11:21AM 30.7403 -81.2417 20° North 154 177 5,000  Level Jacksonville Center
11:22AM 30.7794 -81.2194 26° Northeast 154 177 5,000  Level Jacksonville Center
11:23AM 30.8169 -81.1994 25° Northeast 154 177 5,000  Level Jacksonville Center
11:24AM 30.8606 -81.1792 22° Northeast 154 177 5,000  Level Jacksonville Center
11:25AM 30.9019 -81.1639 18° North 154 177 5,000  Level Jacksonville Center
11:26AM 30.9414 -81.1461 21° North 149 171 5,000  Level Jacksonville Center
11:27AM 30.9831 -81.1286 20° North 149 171 5,000  Level Jacksonville Center
11:28AM 31.0244 -81.1156 15° North 149 171 5,000  Level Jacksonville Center
11:29AM 31.0619 -81.0956 25° Northeast 149 171 5,000  Level Jacksonville Center
11:30AM 31.1011 -81.0753 24° Northeast 149 171 5,000  Level Jacksonville Center
11:31AM 31.1447 -81.0575 19° North 149 171 5,000  Level Jacksonville Center
11:32AM 31.1864 -81.0372 23° Northeast 149 171 5,000  Level Jacksonville Center
11:33AM 31.2256 -81.0169 24° Northeast 149 171 5,000  Level Jacksonville Center
11:34AM 31.2631 -81.0042 16° North 149 171 5,000  Level Jacksonville Center
11:35AM 31.3086 -80.9839 21° North 149 171 5,000  Level Jacksonville Center
11:36AM 31.3481 -80.9658 21° North 149 171 5,000  Level Jacksonville Center
11:37AM 31.3897 -80.9506 17° North 149 171 5,000  Level Jacksonville Center
11:38AM 31.4247 -80.9328 23° Northeast 149 171 5,000  Level Jacksonville Center
11:39AM 31.4664 -80.9197 15° North 149 171 5,000  Level Jacksonville Center
11:40AM 31.5142 -80.9017 18° North 149 171 5,000  Level Jacksonville Center
11:41AM 31.5556 -80.8861 18° North 149 171 5,000  Level Jacksonville Center
11:42AM 31.5950 -80.8658 24° Northeast 149 171 5,000  Level Jacksonville Center
11:43AM 31.6322 -80.8503 20° North 149 171 5,000  Level Jacksonville Center
11:44AM 31.6781 -80.8322 19° North 149 171 5,000  Level Jacksonville Center
11:46AM 31.6994 -80.7880 60° Northeast  Level FlightAware Approximate
11:53AM 31.9644 -80.6403 25° Northeast  Level Estimated
11:54AM 31.9909 -80.6020 51° Northeast  Level FlightAware Approximate
11:55AM 32.0174 -80.5638 51° Northeast  Level FlightAware Approximate
11:56AM 32.0554 -80.5430 24° Northeast  Level Estimated
11:57AM 32.0928 -80.5208 27° Northeast  Level FlightAware Approximate
11:58AM 32.1302 -80.4985 27° Northeast  Level FlightAware Approximate
11:59AM 32.1676 -80.4761 27° Northeast  Level FlightAware Approximate
12:00PM 32.2049 -80.4538 27° Northeast  Level FlightAware Approximate
12:01PM 32.2423 -80.4314 27° Northeast  Level FlightAware Approximate
12:02PM 32.2797 -80.4091 27° Northeast  Level FlightAware Approximate
12:03PM 32.3170 -80.3867 27° Northeast  Level FlightAware Approximate
12:04PM 32.3544 -80.3643 27° Northeast  Level FlightAware Approximate
12:05PM 32.3918 -80.3418 27° Northeast  Level FlightAware Approximate
12:06PM 32.4291 -80.3194 27° Northeast  Level FlightAware Approximate
12:07PM 32.4664 -80.2969 27° Northeast  Level FlightAware Approximate
12:08PM 32.5045 -80.2762 24° Northeast  Level Estimated
12:09PM 32.5425 -80.2553 25° Northeast  Level FlightAware Approximate
12:10PM 32.5805 -80.2344 25° Northeast  Level FlightAware Approximate
12:11PM 32.6185 -80.2134 25° Northeast  Level FlightAware Approximate
12:12PM 32.6565 -80.1925 25° Northeast  Level FlightAware Approximate
12:13PM 32.6944 -80.1715 25° Northeast  Level FlightAware Approximate
12:14PM 32.7325 -80.1507 27° Northeast  Level Estimated
12:15PM 32.7697 -80.1278 27° Northeast  Level FlightAware Approximate
12:16PM 32.8069 -80.1049 27° Northeast  Level FlightAware Approximate
12:17PM 32.8441 -80.0820 27° Northeast  Level FlightAware Approximate
12:18PM 32.8813 -80.0591 27° Northeast  Level FlightAware Approximate
12:19PM 32.9185 -80.0361 27° Northeast  Level FlightAware Approximate
12:20PM 32.9566 -80.0154 23° Northeast  Level Estimated
12:21PM 32.9950 -79.9955 24° Northeast  Level FlightAware Approximate
12:22PM 33.0333 -79.9754 24° Northeast  Level FlightAware Approximate
12:23PM 33.0717 -79.9554 24° Northeast  Level FlightAware Approximate
12:24PM 33.1101 -79.9354 24° Northeast  Level FlightAware Approximate
12:25PM 33.1484 -79.9153 24° Northeast  Level FlightAware Approximate
12:26PM 33.1868 -79.8952 24° Northeast  Level FlightAware Approximate
12:27PM 33.2252 -79.8752 24° Northeast  Level FlightAware Approximate
12:28PM 33.2635 -79.8550 24° Northeast  Level FlightAware Approximate
12:29PM 33.3019 -79.8349 24° Northeast  Level FlightAware Approximate
12:30PM 33.3402 -79.8148 24° Northeast  Level FlightAware Approximate
12:31PM 33.3786 -79.7946 24° Northeast  Level FlightAware Approximate
12:32PM 33.4166 -79.7735 25° Northeast  Level Estimated
12:33PM 33.4544 -79.7520 25° Northeast  Level FlightAware Approximate
12:34PM 33.4923 -79.7305 25° Northeast  Level FlightAware Approximate
12:35PM 33.5301 -79.7090 25° Northeast  Level FlightAware Approximate
12:36PM 33.5680 -79.6874 25° Northeast  Level FlightAware Approximate
12:37PM 33.6058 -79.6659 25° Northeast  Level FlightAware Approximate
12:38PM 33.6436 -79.6443 25° Northeast  Level FlightAware Approximate
12:39PM 33.6815 -79.6227 25° Northeast  Level FlightAware Approximate
12:40PM 33.7193 -79.6011 25° Northeast  Level FlightAware Approximate
12:41PM 33.7571 -79.5795 25° Northeast  Level FlightAware Approximate
12:42PM 33.7949 -79.5578 25° Northeast  Level FlightAware Approximate
12:43PM 33.8327 -79.5361 25° Northeast  Level FlightAware Approximate
12:44PM 33.8707 -79.5149 27° Northeast  Level Estimated
12:45PM 33.9078 -79.4915 28° Northeast  Level FlightAware Approximate
12:46PM 33.9450 -79.4681 28° Northeast  Level FlightAware Approximate
12:47PM 33.9821 -79.4447 28° Northeast  Level FlightAware Approximate
12:48PM 34.0201 -79.4237 25° Northeast  Level Estimated
12:49PM 34.0581 -79.4023 25° Northeast  Level FlightAware Approximate
12:50PM 34.0961 -79.3810 25° Northeast  Level FlightAware Approximate
12:51PM 34.1340 -79.3596 25° Northeast  Level FlightAware Approximate
12:52PM 34.1720 -79.3383 25° Northeast  Level FlightAware Approximate
12:53PM 34.2100 -79.3169 25° Northeast  Level FlightAware Approximate
12:54PM 34.2479 -79.2955 25° Northeast  Level FlightAware Approximate
12:55PM 34.2859 -79.2740 25° Northeast  Level FlightAware Approximate
12:56PM 34.3238 -79.2526 25° Northeast  Level FlightAware Approximate
12:57PM 34.3618 -79.2311 25° Northeast  Level FlightAware Approximate
12:58PM 34.3999 -79.2100 25° Northeast  Level Estimated
12:59PM 34.4380 -79.1889 25° Northeast  Level FlightAware Approximate
01:00PM 34.4760 -79.1677 25° Northeast  Level FlightAware Approximate
01:01PM 34.5141 -79.1465 25° Northeast  Level FlightAware Approximate
01:02PM 34.5522 -79.1253 25° Northeast  Level FlightAware Approximate
01:03PM 34.5902 -79.1040 25° Northeast  Level FlightAware Approximate
01:04PM 34.6283 -79.0828 25° Northeast  Level FlightAware Approximate
01:05PM 34.6663 -79.0615 25° Northeast  Level FlightAware Approximate
01:06PM 34.7044 -79.0404 26° Northeast  Level Estimated
01:07PM 34.7422 -79.0184 26° Northeast  Level FlightAware Approximate
01:08PM 34.7800 -78.9964 26° Northeast  Level FlightAware Approximate
01:09PM 34.8178 -78.9744 26° Northeast  Level FlightAware Approximate
01:10PM 34.8555 -78.9523 26° Northeast  Level FlightAware Approximate